sensor_id;sensor_type;location;lat;lon;timestamp;pressure;altitude;pressure_sealevel;temperature;humidity
64238;BME280;57192;41.976;2.828;2022-08-19T00:01:41;59338.97;;;-144.63;100.00
64238;BME280;57192;41.976;2.828;2022-08-19T00:04:10;59338.97;;;-144.63;100.00
64238;BME280;57192;41.976;2.828;2022-08-19T00:06:39;59338.97;;;-144.63;100.00
64238;BME280;57192;41.976;2.828;2022-08-19T00:09:07;59338.97;;;-144.63;100.00
64238;BME280;57192;41.976;2.828;2022-08-19T00:11:34;59338.97;;;-144.63;100.00
64238;BME280;57192;41.976;2.828;2022-08-19T00:14:01;59338.97;;;-144.63;100.00
64238;BME280;57192;41.976;2.828;2022-08-19T00:16:27;59338.97;;;-144.63;100.00
64238;BME280;57192;41.976;2.828;2022-08-19T00:18:53;59338.97;;;-144.63;100.00
64238;BME280;57192;41.976;2.828;2022-08-19T00:21:20;59338.97;;;-144.63;100.00
64238;BME280;57192;41.976;2.828;2022-08-19T00:23:46;59338.97;;;-144.63;100.00
64238;BME280;57192;41.976;2.828;2022-08-19T00:26:12;59338.97;;;-144.63;100.00
64238;BME280;57192;41.976;2.828;2022-08-19T00:28:37;59338.97;;;-144.63;100.00
64238;BME280;57192;41.976;2.828;2022-08-19T00:31:04;59338.97;;;-144.63;100.00
64238;BME280;57192;41.976;2.828;2022-08-19T00:33:30;59338.97;;;-144.63;100.00
64238;BME280;57192;41.976;2.828;2022-08-19T00:36:04;59338.97;;;-144.63;100.00
64238;BME280;57192;41.976;2.828;2022-08-19T00:38:30;59338.97;;;-144.63;100.00
64238;BME280;57192;41.976;2.828;2022-08-19T00:40:56;59338.97;;;-144.63;100.00
64238;BME280;57192;41.976;2.828;2022-08-19T00:43:24;59338.97;;;-144.63;100.00
64238;BME280;57192;41.976;2.828;2022-08-19T00:45:50;59338.97;;;-144.63;100.00
64238;BME280;57192;41.976;2.828;2022-08-19T00:48:17;59338.97;;;-144.63;100.00
64238;BME280;57192;41.976;2.828;2022-08-19T00:50:44;59338.97;;;-144.63;100.00
64238;BME280;57192;41.976;2.828;2022-08-19T00:53:12;59338.97;;;-144.63;100.00
64238;BME280;57192;41.976;2.828;2022-08-19T00:55:42;59338.97;;;-144.63;100.00
64238;BME280;57192;41.976;2.828;2022-08-19T00:58:12;59338.97;;;-144.63;100.00
64238;BME280;57192;41.976;2.828;2022-08-19T01:00:39;59338.97;;;-144.63;100.00
64238;BME280;57192;41.976;2.828;2022-08-19T01:03:07;59338.97;;;-144.63;100.00
64238;BME280;57192;41.976;2.828;2022-08-19T01:05:33;59338.97;;;-144.63;100.00
64238;BME280;57192;41.976;2.828;2022-08-19T01:08:01;59338.97;;;-144.63;100.00
64238;BME280;57192;41.976;2.828;2022-08-19T01:10:29;59338.97;;;-144.63;100.00
64238;BME280;57192;41.976;2.828;2022-08-19T01:12:58;59338.97;;;-144.63;100.00
64238;BME280;57192;41.976;2.828;2022-08-19T01:15:27;59338.97;;;-144.63;100.00
64238;BME280;57192;41.976;2.828;2022-08-19T01:17:55;59338.97;;;-144.63;100.00
64238;BME280;57192;41.976;2.828;2022-08-19T01:20:23;59338.97;;;-144.63;100.00
64238;BME280;57192;41.976;2.828;2022-08-19T01:22:51;59338.97;;;-144.63;100.00
64238;BME280;57192;41.976;2.828;2022-08-19T01:25:20;59338.97;;;-144.63;100.00
64238;BME280;57192;41.976;2.828;2022-08-19T01:27:49;59338.97;;;-144.63;100.00
64238;BME280;57192;41.976;2.828;2022-08-19T01:30:19;59338.97;;;-144.63;100.00
64238;BME280;57192;41.976;2.828;2022-08-19T01:32:45;59338.97;;;-144.63;100.00
64238;BME280;57192;41.976;2.828;2022-08-19T01:35:12;59338.97;;;-144.63;100.00
64238;BME280;57192;41.976;2.828;2022-08-19T01:37:45;59338.97;;;-144.63;100.00
64238;BME280;57192;41.976;2.828;2022-08-19T01:40:11;59338.97;;;-144.63;100.00
64238;BME280;57192;41.976;2.828;2022-08-19T01:42:36;59338.97;;;-144.63;100.00
64238;BME280;57192;41.976;2.828;2022-08-19T01:45:03;59338.97;;;-144.63;100.00
64238;BME280;57192;41.976;2.828;2022-08-19T01:47:29;59338.97;;;-144.63;100.00
64238;BME280;57192;41.976;2.828;2022-08-19T01:49:54;59338.97;;;-144.63;100.00
64238;BME280;57192;41.976;2.828;2022-08-19T01:52:20;59338.97;;;-144.63;100.00
64238;BME280;57192;41.976;2.828;2022-08-19T01:54:46;59338.97;;;-144.63;100.00
64238;BME280;57192;41.976;2.828;2022-08-19T01:57:13;59338.97;;;-144.63;100.00
64238;BME280;57192;41.976;2.828;2022-08-19T01:59:40;59338.97;;;-144.63;100.00
64238;BME280;57192;41.976;2.828;2022-08-19T02:02:06;59338.97;;;-144.63;100.00
64238;BME280;57192;41.976;2.828;2022-08-19T02:04:35;59338.97;;;-144.63;100.00
64238;BME280;57192;41.976;2.828;2022-08-19T02:07:03;59338.97;;;-144.63;100.00
64238;BME280;57192;41.976;2.828;2022-08-19T02:09:31;59338.97;;;-144.63;100.00
64238;BME280;57192;41.976;2.828;2022-08-19T02:11:56;59338.97;;;-144.63;100.00
64238;BME280;57192;41.976;2.828;2022-08-19T02:14:22;59338.97;;;-144.63;100.00
64238;BME280;57192;41.976;2.828;2022-08-19T02:16:48;59338.97;;;-144.63;100.00
64238;BME280;57192;41.976;2.828;2022-08-19T02:19:13;59338.97;;;-144.63;100.00
64238;BME280;57192;41.976;2.828;2022-08-19T02:21:39;59338.97;;;-144.63;100.00
64238;BME280;57192;41.976;2.828;2022-08-19T02:24:04;59338.97;;;-144.63;100.00
64238;BME280;57192;41.976;2.828;2022-08-19T02:26:31;59338.97;;;-144.63;100.00
64238;BME280;57192;41.976;2.828;2022-08-19T02:28:57;59338.97;;;-144.63;100.00
64238;BME280;57192;41.976;2.828;2022-08-19T02:31:24;59338.97;;;-144.63;100.00
64238;BME280;57192;41.976;2.828;2022-08-19T02:33:51;59338.97;;;-144.63;100.00
64238;BME280;57192;41.976;2.828;2022-08-19T02:36:17;59338.97;;;-144.63;100.00
64238;BME280;57192;41.976;2.828;2022-08-19T02:38:44;59338.97;;;-144.63;100.00
64238;BME280;57192;41.976;2.828;2022-08-19T02:41:19;59338.97;;;-144.63;100.00
64238;BME280;57192;41.976;2.828;2022-08-19T02:43:45;59338.97;;;-144.63;100.00
64238;BME280;57192;41.976;2.828;2022-08-19T02:46:22;59338.97;;;-144.63;100.00
64238;BME280;57192;41.976;2.828;2022-08-19T02:48:53;59338.97;;;-144.63;100.00
64238;BME280;57192;41.976;2.828;2022-08-19T02:51:41;59338.97;;;-144.63;100.00
64238;BME280;57192;41.976;2.828;2022-08-19T02:54:08;59338.97;;;-144.63;100.00
64238;BME280;57192;41.976;2.828;2022-08-19T02:56:37;59338.97;;;-144.63;100.00
64238;BME280;57192;41.976;2.828;2022-08-19T02:59:03;59338.97;;;-144.63;100.00
64238;BME280;57192;41.976;2.828;2022-08-19T03:01:33;59338.97;;;-144.63;100.00
64238;BME280;57192;41.976;2.828;2022-08-19T03:04:01;59338.97;;;-144.63;100.00
64238;BME280;57192;41.976;2.828;2022-08-19T03:06:27;59338.97;;;-144.63;100.00
64238;BME280;57192;41.976;2.828;2022-08-19T03:08:53;59338.97;;;-144.63;100.00
64238;BME280;57192;41.976;2.828;2022-08-19T03:11:23;59338.97;;;-144.63;100.00
64238;BME280;57192;41.976;2.828;2022-08-19T03:13:49;59338.97;;;-144.63;100.00
64238;BME280;57192;41.976;2.828;2022-08-19T03:16:16;59338.97;;;-144.63;100.00
64238;BME280;57192;41.976;2.828;2022-08-19T03:18:42;59338.97;;;-144.63;100.00
64238;BME280;57192;41.976;2.828;2022-08-19T03:21:08;59338.97;;;-144.63;100.00
64238;BME280;57192;41.976;2.828;2022-08-19T03:23:34;59338.97;;;-144.63;100.00
64238;BME280;57192;41.976;2.828;2022-08-19T03:26:03;59338.97;;;-144.63;100.00
64238;BME280;57192;41.976;2.828;2022-08-19T03:28:30;59338.97;;;-144.63;100.00
64238;BME280;57192;41.976;2.828;2022-08-19T03:31:18;59338.97;;;-144.63;100.00
64238;BME280;57192;41.976;2.828;2022-08-19T03:33:44;59338.97;;;-144.63;100.00
64238;BME280;57192;41.976;2.828;2022-08-19T03:36:12;59338.97;;;-144.63;100.00
64238;BME280;57192;41.976;2.828;2022-08-19T03:38:44;59338.97;;;-144.63;100.00
64238;BME280;57192;41.976;2.828;2022-08-19T03:41:15;59338.97;;;-144.63;100.00
64238;BME280;57192;41.976;2.828;2022-08-19T03:43:43;59338.97;;;-144.63;100.00
64238;BME280;57192;41.976;2.828;2022-08-19T03:46:11;59338.97;;;-144.63;100.00
64238;BME280;57192;41.976;2.828;2022-08-19T03:48:39;59338.97;;;-144.63;100.00
64238;BME280;57192;41.976;2.828;2022-08-19T03:51:05;59338.97;;;-144.63;100.00
64238;BME280;57192;41.976;2.828;2022-08-19T03:53:33;59338.97;;;-144.63;100.00
64238;BME280;57192;41.976;2.828;2022-08-19T03:55:59;59338.97;;;-144.63;100.00
64238;BME280;57192;41.976;2.828;2022-08-19T03:58:26;59338.97;;;-144.63;100.00
64238;BME280;57192;41.976;2.828;2022-08-19T04:00:54;59338.97;;;-144.63;100.00
64238;BME280;57192;41.976;2.828;2022-08-19T04:03:20;59338.97;;;-144.63;100.00
64238;BME280;57192;41.976;2.828;2022-08-19T04:05:46;59338.97;;;-144.63;100.00
64238;BME280;57192;41.976;2.828;2022-08-19T04:08:12;59338.97;;;-144.63;100.00
64238;BME280;57192;41.976;2.828;2022-08-19T04:10:38;59338.97;;;-144.63;100.00
64238;BME280;57192;41.976;2.828;2022-08-19T04:13:04;59338.97;;;-144.63;100.00
64238;BME280;57192;41.976;2.828;2022-08-19T04:15:31;59338.97;;;-144.63;100.00
64238;BME280;57192;41.976;2.828;2022-08-19T04:18:01;59338.97;;;-144.63;100.00
64238;BME280;57192;41.976;2.828;2022-08-19T04:20:26;59338.97;;;-144.63;100.00
64238;BME280;57192;41.976;2.828;2022-08-19T04:22:52;59338.97;;;-144.63;100.00
64238;BME280;57192;41.976;2.828;2022-08-19T04:25:17;59338.97;;;-144.63;100.00
64238;BME280;57192;41.976;2.828;2022-08-19T04:27:43;59338.97;;;-144.63;100.00
64238;BME280;57192;41.976;2.828;2022-08-19T04:30:12;59338.97;;;-144.63;100.00
64238;BME280;57192;41.976;2.828;2022-08-19T04:32:38;59338.97;;;-144.63;100.00
64238;BME280;57192;41.976;2.828;2022-08-19T04:35:04;59338.97;;;-144.63;100.00
64238;BME280;57192;41.976;2.828;2022-08-19T04:37:30;59338.97;;;-144.63;100.00
64238;BME280;57192;41.976;2.828;2022-08-19T04:39:57;59338.97;;;-144.63;100.00
64238;BME280;57192;41.976;2.828;2022-08-19T04:42:49;59338.97;;;-144.63;100.00
64238;BME280;57192;41.976;2.828;2022-08-19T04:45:14;59338.97;;;-144.63;100.00
64238;BME280;57192;41.976;2.828;2022-08-19T04:47:42;59338.97;;;-144.63;100.00
64238;BME280;57192;41.976;2.828;2022-08-19T04:50:10;59338.97;;;-144.63;100.00
64238;BME280;57192;41.976;2.828;2022-08-19T04:52:38;59338.97;;;-144.63;100.00
64238;BME280;57192;41.976;2.828;2022-08-19T04:55:08;59338.97;;;-144.63;100.00
64238;BME280;57192;41.976;2.828;2022-08-19T04:57:33;59338.97;;;-144.63;100.00
64238;BME280;57192;41.976;2.828;2022-08-19T04:59:59;59338.97;;;-144.63;100.00
64238;BME280;57192;41.976;2.828;2022-08-19T05:02:24;59338.97;;;-144.63;100.00
64238;BME280;57192;41.976;2.828;2022-08-19T05:04:55;59338.97;;;-144.63;100.00
64238;BME280;57192;41.976;2.828;2022-08-19T05:07:21;59338.97;;;-144.63;100.00
64238;BME280;57192;41.976;2.828;2022-08-19T05:09:46;59338.97;;;-144.63;100.00
64238;BME280;57192;41.976;2.828;2022-08-19T05:12:12;59338.97;;;-144.63;100.00
64238;BME280;57192;41.976;2.828;2022-08-19T05:14:37;59338.97;;;-144.63;100.00
64238;BME280;57192;41.976;2.828;2022-08-19T05:17:03;59338.97;;;-144.63;100.00
64238;BME280;57192;41.976;2.828;2022-08-19T05:19:28;59338.97;;;-144.63;100.00
64238;BME280;57192;41.976;2.828;2022-08-19T05:22:12;59338.97;;;-144.63;100.00
64238;BME280;57192;41.976;2.828;2022-08-19T05:25:10;59338.97;;;-144.63;100.00
64238;BME280;57192;41.976;2.828;2022-08-19T05:27:37;59338.97;;;-144.63;100.00
64238;BME280;57192;41.976;2.828;2022-08-19T05:30:03;59338.97;;;-144.63;100.00
64238;BME280;57192;41.976;2.828;2022-08-19T05:32:29;59338.97;;;-144.63;100.00
64238;BME280;57192;41.976;2.828;2022-08-19T05:34:54;59338.97;;;-144.63;100.00
64238;BME280;57192;41.976;2.828;2022-08-19T05:37:20;59338.97;;;-144.63;100.00
64238;BME280;57192;41.976;2.828;2022-08-19T05:39:46;59338.97;;;-144.63;100.00
64238;BME280;57192;41.976;2.828;2022-08-19T05:42:12;59338.97;;;-144.63;100.00
64238;BME280;57192;41.976;2.828;2022-08-19T05:44:40;59338.97;;;-144.63;100.00
64238;BME280;57192;41.976;2.828;2022-08-19T05:47:11;59338.97;;;-144.63;100.00
64238;BME280;57192;41.976;2.828;2022-08-19T05:49:37;59338.97;;;-144.63;100.00
64238;BME280;57192;41.976;2.828;2022-08-19T05:52:09;59338.97;;;-144.63;100.00
64238;BME280;57192;41.976;2.828;2022-08-19T05:54:39;59338.97;;;-144.63;100.00
64238;BME280;57192;41.976;2.828;2022-08-19T05:57:08;59338.97;;;-144.63;100.00
64238;BME280;57192;41.976;2.828;2022-08-19T05:59:34;59338.97;;;-144.63;100.00
64238;BME280;57192;41.976;2.828;2022-08-19T06:02:01;59338.97;;;-144.63;100.00
64238;BME280;57192;41.976;2.828;2022-08-19T06:04:26;59338.97;;;-144.63;100.00
64238;BME280;57192;41.976;2.828;2022-08-19T06:06:53;59338.97;;;-144.63;100.00
64238;BME280;57192;41.976;2.828;2022-08-19T06:09:20;59338.97;;;-144.63;100.00
64238;BME280;57192;41.976;2.828;2022-08-19T06:11:51;59338.97;;;-144.63;100.00
64238;BME280;57192;41.976;2.828;2022-08-19T06:14:25;59338.97;;;-144.63;100.00
64238;BME280;57192;41.976;2.828;2022-08-19T06:16:51;59338.97;;;-144.63;100.00
64238;BME280;57192;41.976;2.828;2022-08-19T06:19:19;59338.97;;;-144.63;100.00
64238;BME280;57192;41.976;2.828;2022-08-19T06:21:48;59338.97;;;-144.63;100.00
64238;BME280;57192;41.976;2.828;2022-08-19T06:24:16;59338.97;;;-144.63;100.00
64238;BME280;57192;41.976;2.828;2022-08-19T06:26:44;59338.97;;;-144.63;100.00
64238;BME280;57192;41.976;2.828;2022-08-19T06:29:13;59338.97;;;-144.63;100.00
64238;BME280;57192;41.976;2.828;2022-08-19T06:31:42;59338.97;;;-144.63;100.00
64238;BME280;57192;41.976;2.828;2022-08-19T06:34:08;59338.97;;;-144.63;100.00
64238;BME280;57192;41.976;2.828;2022-08-19T06:36:40;100919.28;;;28.00;45.66
64238;BME280;57192;41.976;2.828;2022-08-19T06:39:23;100921.94;;;30.23;40.26
64238;BME280;57192;41.976;2.828;2022-08-19T06:41:51;100921.75;;;31.72;37.69
64238;BME280;57192;41.976;2.828;2022-08-19T06:44:21;100923.06;;;32.97;34.77
64238;BME280;57192;41.976;2.828;2022-08-19T06:46:47;100920.50;;;34.31;31.36
64238;BME280;57192;41.976;2.828;2022-08-19T06:49:14;100924.34;;;35.35;28.96
64238;BME280;57192;41.976;2.828;2022-08-19T06:51:45;100925.78;;;36.46;27.10
64238;BME280;57192;41.976;2.828;2022-08-19T06:54:12;100933.97;;;37.69;25.42
64238;BME280;57192;41.976;2.828;2022-08-19T06:56:38;100937.25;;;38.73;24.33
64238;BME280;57192;41.976;2.828;2022-08-19T06:59:05;100936.19;;;39.67;22.61
64238;BME280;57192;41.976;2.828;2022-08-19T07:01:44;100944.34;;;40.31;21.39
64238;BME280;57192;41.976;2.828;2022-08-19T07:04:13;100945.16;;;40.82;20.95
64238;BME280;57192;41.976;2.828;2022-08-19T07:06:41;100943.59;;;41.30;20.28
64238;BME280;57192;41.976;2.828;2022-08-19T07:09:08;100950.78;;;41.70;19.44
64238;BME280;57192;41.976;2.828;2022-08-19T07:11:34;100955.25;;;41.71;18.59
64238;BME280;57192;41.976;2.828;2022-08-19T07:14:00;100957.22;;;41.97;18.79
64238;BME280;57192;41.976;2.828;2022-08-19T07:16:26;100956.06;;;42.52;18.17
64238;BME280;57192;41.976;2.828;2022-08-19T07:18:52;100947.31;;;43.28;17.13
64238;BME280;57192;41.976;2.828;2022-08-19T07:21:21;100944.94;;;43.83;17.04
64238;BME280;57192;41.976;2.828;2022-08-19T07:23:48;100940.25;;;44.19;16.39
64238;BME280;57192;41.976;2.828;2022-08-19T07:26:20;100944.13;;;44.64;15.37
64238;BME280;57192;41.976;2.828;2022-08-19T07:28:47;100949.69;;;45.05;14.83
64238;BME280;57192;41.976;2.828;2022-08-19T07:31:16;100936.84;;;45.54;14.40
64238;BME280;57192;41.976;2.828;2022-08-19T07:33:43;100938.09;;;45.82;14.18
64238;BME280;57192;41.976;2.828;2022-08-19T07:36:11;100939.75;;;45.83;14.25
64238;BME280;57192;41.976;2.828;2022-08-19T07:38:39;100937.84;;;45.73;14.42
64238;BME280;57192;41.976;2.828;2022-08-19T07:41:06;100934.00;;;46.03;14.06
64238;BME280;57192;41.976;2.828;2022-08-19T07:43:32;100947.47;;;46.40;14.00
64238;BME280;57192;41.976;2.828;2022-08-19T07:45:58;100946.31;;;46.71;14.14
64238;BME280;57192;41.976;2.828;2022-08-19T07:48:25;100943.34;;;46.86;13.56
64238;BME280;57192;41.976;2.828;2022-08-19T07:50:53;100938.81;;;47.14;13.15
64238;BME280;57192;41.976;2.828;2022-08-19T07:53:20;100943.28;;;47.58;12.77
64238;BME280;57192;41.976;2.828;2022-08-19T07:55:46;100941.75;;;47.66;12.86
64238;BME280;57192;41.976;2.828;2022-08-19T07:58:13;100940.72;;;47.80;12.27
64238;BME280;57192;41.976;2.828;2022-08-19T08:00:41;100956.16;;;48.21;12.20
64238;BME280;57192;41.976;2.828;2022-08-19T08:03:06;100956.28;;;48.76;11.65
64238;BME280;57192;41.976;2.828;2022-08-19T08:05:34;100947.53;;;49.33;11.05
64238;BME280;57192;41.976;2.828;2022-08-19T08:08:17;100946.63;;;49.73;10.96
64238;BME280;57192;41.976;2.828;2022-08-19T08:11:02;100946.28;;;50.11;11.01
64238;BME280;57192;41.976;2.828;2022-08-19T08:13:28;100947.97;;;50.43;10.95
64238;BME280;57192;41.976;2.828;2022-08-19T08:15:53;100938.19;;;50.81;10.43
64238;BME280;57192;41.976;2.828;2022-08-19T08:18:19;100935.44;;;50.98;9.96
64238;BME280;57192;41.976;2.828;2022-08-19T08:20:46;100927.72;;;51.30;9.22
64238;BME280;57192;41.976;2.828;2022-08-19T08:23:11;100931.31;;;51.04;9.24
64238;BME280;57192;41.976;2.828;2022-08-19T08:25:57;100941.81;;;51.12;9.96
64238;BME280;57192;41.976;2.828;2022-08-19T08:28:24;100944.84;;;51.25;9.29
64238;BME280;57192;41.976;2.828;2022-08-19T08:30:50;100946.06;;;51.50;8.64
64238;BME280;57192;41.976;2.828;2022-08-19T08:33:21;100938.09;;;51.78;8.27
64238;BME280;57192;41.976;2.828;2022-08-19T08:35:47;100935.91;;;51.75;8.04
64238;BME280;57192;41.976;2.828;2022-08-19T08:38:13;100933.75;;;51.89;8.50
64238;BME280;57192;41.976;2.828;2022-08-19T08:40:49;100942.75;;;52.08;8.24
64238;BME280;57192;41.976;2.828;2022-08-19T08:46:24;100939.91;;;51.56;8.41
64238;BME280;57192;41.976;2.828;2022-08-19T08:51:38;100941.00;;;50.18;9.71
64238;BME280;57192;41.976;2.828;2022-08-19T08:54:13;100935.94;;;49.20;10.06
64238;BME280;57192;41.976;2.828;2022-08-19T08:56:41;100933.34;;;47.84;11.47
64238;BME280;57192;41.976;2.828;2022-08-19T08:59:30;59338.97;;;-144.63;100.00
64238;BME280;57192;41.976;2.828;2022-08-19T09:01:58;59338.97;;;-144.63;100.00
64238;BME280;57192;41.976;2.828;2022-08-19T09:04:23;59338.97;;;-144.63;100.00
64238;BME280;57192;41.976;2.828;2022-08-19T09:09:37;59338.97;;;-144.63;100.00
64238;BME280;57192;41.976;2.828;2022-08-19T09:12:10;59338.97;;;-144.63;100.00
64238;BME280;57192;41.976;2.828;2022-08-19T09:17:25;59338.97;;;-144.63;100.00
64238;BME280;57192;41.976;2.828;2022-08-19T09:19:56;59338.97;;;-144.63;100.00
64238;BME280;57192;41.976;2.828;2022-08-19T09:22:22;59338.97;;;-144.63;100.00
64238;BME280;57192;41.976;2.828;2022-08-19T09:24:49;59338.97;;;-144.63;100.00
64238;BME280;57192;41.976;2.828;2022-08-19T09:27:17;59338.97;;;-144.63;100.00
64238;BME280;57192;41.976;2.828;2022-08-19T09:29:43;59338.97;;;-144.63;100.00
64238;BME280;57192;41.976;2.828;2022-08-19T09:32:08;59338.97;;;-144.63;100.00
64238;BME280;57192;41.976;2.828;2022-08-19T09:34:33;59338.97;;;-144.63;100.00
64238;BME280;57192;41.976;2.828;2022-08-19T09:36:59;59338.97;;;-144.63;100.00
64238;BME280;57192;41.976;2.828;2022-08-19T09:39:25;59338.97;;;-144.63;100.00
64238;BME280;57192;41.976;2.828;2022-08-19T09:41:51;59338.97;;;-144.63;100.00
64238;BME280;57192;41.976;2.828;2022-08-19T09:44:18;59338.97;;;-144.63;100.00
64238;BME280;57192;41.976;2.828;2022-08-19T09:46:45;59338.97;;;-144.63;100.00
64238;BME280;57192;41.976;2.828;2022-08-19T09:49:12;59338.97;;;-144.63;100.00
64238;BME280;57192;41.976;2.828;2022-08-19T09:51:37;59338.97;;;-144.63;100.00
64238;BME280;57192;41.976;2.828;2022-08-19T09:54:04;59338.97;;;-144.63;100.00
64238;BME280;57192;41.976;2.828;2022-08-19T09:56:30;59338.97;;;-144.63;100.00
64238;BME280;57192;41.976;2.828;2022-08-19T09:58:57;59338.97;;;-144.63;100.00
64238;BME280;57192;41.976;2.828;2022-08-19T10:01:29;59338.97;;;-144.63;100.00
64238;BME280;57192;41.976;2.828;2022-08-19T10:03:57;59338.97;;;-144.63;100.00
64238;BME280;57192;41.976;2.828;2022-08-19T10:06:26;59338.97;;;-144.63;100.00
64238;BME280;57192;41.976;2.828;2022-08-19T10:08:55;59338.97;;;-144.63;100.00
64238;BME280;57192;41.976;2.828;2022-08-19T10:11:20;59338.97;;;-144.63;100.00
64238;BME280;57192;41.976;2.828;2022-08-19T10:13:47;59338.97;;;-144.63;100.00
64238;BME280;57192;41.976;2.828;2022-08-19T10:16:16;59338.97;;;-144.63;100.00
64238;BME280;57192;41.976;2.828;2022-08-19T10:18:43;59338.97;;;-144.63;100.00
64238;BME280;57192;41.976;2.828;2022-08-19T10:21:30;59338.97;;;-144.63;100.00
64238;BME280;57192;41.976;2.828;2022-08-19T10:23:57;59338.97;;;-144.63;100.00
64238;BME280;57192;41.976;2.828;2022-08-19T10:26:28;59338.97;;;-144.63;100.00
64238;BME280;57192;41.976;2.828;2022-08-19T10:28:54;59338.97;;;-144.63;100.00
64238;BME280;57192;41.976;2.828;2022-08-19T10:31:26;59338.97;;;-144.63;100.00
64238;BME280;57192;41.976;2.828;2022-08-19T10:33:52;59338.97;;;-144.63;100.00
64238;BME280;57192;41.976;2.828;2022-08-19T10:36:34;59338.97;;;-144.63;100.00
64238;BME280;57192;41.976;2.828;2022-08-19T10:39:05;59338.97;;;-144.63;100.00
64238;BME280;57192;41.976;2.828;2022-08-19T10:41:32;59338.97;;;-144.63;100.00
64238;BME280;57192;41.976;2.828;2022-08-19T10:44:03;59338.97;;;-144.63;100.00
64238;BME280;57192;41.976;2.828;2022-08-19T10:46:31;59338.97;;;-144.63;100.00
64238;BME280;57192;41.976;2.828;2022-08-19T10:48:59;59338.97;;;-144.63;100.00
64238;BME280;57192;41.976;2.828;2022-08-19T10:51:25;59338.97;;;-144.63;100.00
64238;BME280;57192;41.976;2.828;2022-08-19T10:54:09;59338.97;;;-144.63;100.00
64238;BME280;57192;41.976;2.828;2022-08-19T10:56:35;59338.97;;;-144.63;100.00
64238;BME280;57192;41.976;2.828;2022-08-19T10:59:23;59338.97;;;-144.63;100.00
64238;BME280;57192;41.976;2.828;2022-08-19T11:01:50;59338.97;;;-144.63;100.00
64238;BME280;57192;41.976;2.828;2022-08-19T11:04:17;59338.97;;;-144.63;100.00
64238;BME280;57192;41.976;2.828;2022-08-19T11:06:46;59338.97;;;-144.63;100.00
64238;BME280;57192;41.976;2.828;2022-08-19T11:09:18;59338.97;;;-144.63;100.00
64238;BME280;57192;41.976;2.828;2022-08-19T11:11:44;59338.97;;;-144.63;100.00
64238;BME280;57192;41.976;2.828;2022-08-19T11:14:12;59338.97;;;-144.63;100.00
64238;BME280;57192;41.976;2.828;2022-08-19T11:16:38;59338.97;;;-144.63;100.00
64238;BME280;57192;41.976;2.828;2022-08-19T11:19:04;59338.97;;;-144.63;100.00
64238;BME280;57192;41.976;2.828;2022-08-19T11:21:35;59338.97;;;-144.63;100.00
64238;BME280;57192;41.976;2.828;2022-08-19T11:24:04;59338.97;;;-144.63;100.00
64238;BME280;57192;41.976;2.828;2022-08-19T11:26:32;59338.97;;;-144.63;100.00
64238;BME280;57192;41.976;2.828;2022-08-19T11:28:59;59338.97;;;-144.63;100.00
64238;BME280;57192;41.976;2.828;2022-08-19T11:31:34;59338.97;;;-144.63;100.00
64238;BME280;57192;41.976;2.828;2022-08-19T11:34:06;59338.97;;;-144.63;100.00
64238;BME280;57192;41.976;2.828;2022-08-19T11:36:33;59338.97;;;-144.63;100.00
64238;BME280;57192;41.976;2.828;2022-08-19T11:39:00;59338.97;;;-144.63;100.00
64238;BME280;57192;41.976;2.828;2022-08-19T11:41:26;59338.97;;;-144.63;100.00
64238;BME280;57192;41.976;2.828;2022-08-19T11:43:53;59338.97;;;-144.63;100.00
64238;BME280;57192;41.976;2.828;2022-08-19T11:46:21;59338.97;;;-144.63;100.00
64238;BME280;57192;41.976;2.828;2022-08-19T11:48:48;59338.97;;;-144.63;100.00
64238;BME280;57192;41.976;2.828;2022-08-19T11:51:17;59338.97;;;-144.63;100.00
64238;BME280;57192;41.976;2.828;2022-08-19T11:53:44;59338.97;;;-144.63;100.00
64238;BME280;57192;41.976;2.828;2022-08-19T11:56:11;59338.97;;;-144.63;100.00
64238;BME280;57192;41.976;2.828;2022-08-19T11:58:37;59338.97;;;-144.63;100.00
64238;BME280;57192;41.976;2.828;2022-08-19T12:01:07;59338.97;;;-144.63;100.00
64238;BME280;57192;41.976;2.828;2022-08-19T12:03:33;59338.97;;;-144.63;100.00
64238;BME280;57192;41.976;2.828;2022-08-19T12:06:07;59338.97;;;-144.63;100.00
64238;BME280;57192;41.976;2.828;2022-08-19T12:08:34;59338.97;;;-144.63;100.00
64238;BME280;57192;41.976;2.828;2022-08-19T12:10:59;59338.97;;;-144.63;100.00
64238;BME280;57192;41.976;2.828;2022-08-19T12:13:28;59338.97;;;-144.63;100.00
64238;BME280;57192;41.976;2.828;2022-08-19T12:15:54;59338.97;;;-144.63;100.00
64238;BME280;57192;41.976;2.828;2022-08-19T12:18:19;59338.97;;;-144.63;100.00
64238;BME280;57192;41.976;2.828;2022-08-19T12:20:45;59338.97;;;-144.63;100.00
64238;BME280;57192;41.976;2.828;2022-08-19T12:23:11;59338.97;;;-144.63;100.00
64238;BME280;57192;41.976;2.828;2022-08-19T12:25:44;59338.97;;;-144.63;100.00
64238;BME280;57192;41.976;2.828;2022-08-19T12:28:15;59338.97;;;-144.63;100.00
64238;BME280;57192;41.976;2.828;2022-08-19T12:30:41;59338.97;;;-144.63;100.00
64238;BME280;57192;41.976;2.828;2022-08-19T12:33:07;59338.97;;;-144.63;100.00
64238;BME280;57192;41.976;2.828;2022-08-19T12:35:33;59338.97;;;-144.63;100.00
64238;BME280;57192;41.976;2.828;2022-08-19T12:37:58;59338.97;;;-144.63;100.00
64238;BME280;57192;41.976;2.828;2022-08-19T12:40:26;59338.97;;;-144.63;100.00
64238;BME280;57192;41.976;2.828;2022-08-19T12:42:53;59338.97;;;-144.63;100.00
64238;BME280;57192;41.976;2.828;2022-08-19T12:45:18;59338.97;;;-144.63;100.00
64238;BME280;57192;41.976;2.828;2022-08-19T12:47:44;59338.97;;;-144.63;100.00
64238;BME280;57192;41.976;2.828;2022-08-19T12:50:11;59338.97;;;-144.63;100.00